Terminal Aerodrome Forecast
Issued by NWS Key West, FL

Home | Current Version | Previous Version | Text Only | Print | Product List | Glossary On
Versions: 1 2 3 4 5 6 7 8 9 10 11 12 13 14 15 16 17 18 19 20 21 22 23 24 25 26 27 28
000
FTUS42 KKEY 051223 AAA
TAFEYW
TAF AMD
KEYW 051223Z 0512/0612 12012G17KT P6SM SCT025 SCT200
      TEMPO 0512/0515 BKN025
     FM060600 15012KT P6SM VCSH SCT018 SCT060 BKN200=

USA.gov is the U.S. government's official web portal to all federal, state and local government web resources and services.